createdAt,value
2023-01-20T15:53:56.976Z,99993.70
2023-01-20T15:56:29.430Z,99994.96
2023-01-20T15:58:57.587Z,100002.28
2023-01-20T16:01:26.594Z,100003.24
2023-01-20T16:03:56.790Z,100002.00
2023-01-20T16:06:30.243Z,100003.27
2023-01-20T16:08:57.794Z,100001.98
2023-01-20T16:11:25.270Z,100002.79
2023-01-20T16:13:52.835Z,100001.75
2023-01-20T16:16:22.039Z,100005.75
2023-01-20T16:18:49.527Z,100007.70
2023-01-20T16:21:18.495Z,100008.66
2023-01-20T16:23:46.363Z,100006.88
2023-01-20T16:26:24.835Z,100006.71
2023-01-20T16:28:56.581Z,100002.99
2023-01-20T16:31:25.286Z,100002.92
2023-01-20T16:33:53.369Z,100005.41
2023-01-20T16:36:21.835Z,100007.15
2023-01-20T16:38:49.957Z,100009.17
2023-01-20T16:41:20.921Z,100012.09
2023-01-20T16:43:48.917Z,100014.86
2023-01-20T16:46:18.067Z,100012.73
2023-01-20T16:48:45.520Z,100016.23
2023-01-20T16:51:14.384Z,100012.59
2023-01-20T16:53:42.047Z,100013.95
2023-01-20T16:56:16.568Z,100021.02
2023-01-20T16:58:44.361Z,100021.39
2023-01-20T17:01:12.633Z,100028.36
2023-01-20T17:03:43.393Z,100025.92
2023-01-20T17:06:11.150Z,100027.95
2023-01-20T17:08:38.761Z,100035.59
2023-01-20T17:11:06.234Z,100042.10
2023-01-20T17:13:33.688Z,100040.75
2023-01-20T17:16:01.114Z,100041.71
2023-01-20T17:18:28.733Z,100037.52
2023-01-20T17:20:56.813Z,100042.32
2023-01-20T17:23:24.348Z,100048.34
2023-01-20T17:25:51.859Z,100047.10
2023-01-20T17:28:19.536Z,100045.34
2023-01-20T17:30:47.038Z,100048.05
2023-01-20T17:33:14.744Z,100046.46
2023-01-20T17:35:43.246Z,100046.80
2023-01-20T17:38:10.883Z,100048.00
2023-01-20T17:40:38.422Z,100052.39
2023-01-20T17:43:06.056Z,100054.11
2023-01-20T17:45:35.500Z,100058.34
2023-01-20T17:48:04.591Z,100060.61
2023-01-20T17:50:32.468Z,100054.89
2023-01-20T17:52:59.998Z,100055.08
2023-01-20T17:55:28.563Z,100057.36
2023-01-20T17:57:56.602Z,100055.52
2023-01-20T18:00:24.543Z,100058.59
2023-01-20T18:02:55.084Z,100065.48
2023-01-20T18:05:22.740Z,100067.05
2023-01-20T18:07:51.251Z,100065.28
2023-01-20T18:10:18.899Z,100065.03
2023-01-20T18:12:46.376Z,100061.77
2023-01-20T18:15:14.148Z,100062.75
2023-01-20T18:17:43.822Z,100066.21
2023-01-20T18:20:12.460Z,100068.73
2023-01-20T18:22:40.109Z,100071.36
2023-01-20T18:25:08.173Z,100067.98
2023-01-20T18:27:35.791Z,100069.92
2023-01-20T18:30:03.422Z,100072.23
2023-01-20T18:32:31.170Z,100080.88
2023-01-20T18:34:59.094Z,100089.62
2023-01-20T18:37:26.994Z,100086.74
2023-01-20T18:39:54.842Z,100092.42
2023-01-20T18:42:22.635Z,100098.91
2023-01-20T18:44:50.273Z,100101.42
2023-01-20T18:47:17.948Z,100102.64
2023-01-20T18:49:45.604Z,100102.73
2023-01-20T18:52:13.195Z,100101.67
2023-01-20T18:54:40.862Z,100103.17
2023-01-20T18:57:09.190Z,100101.98
2023-01-20T21:21:52.215Z,100216.66
